Time;durP1;ratioP1;P1;durP2;ratioP2;P2;SDS_P1;SDS_P2;PMS_P1;PMS_P2;Temp;Humidity;BMP_temperature;BMP_pressure;BME280_temperature;BME280_humidity;BME280_pressure;Samples;Min_cycle;Max_cycle;Signal;HPM_P1;HPM_P2
2023/09/01 00:00:13;;;;;;;3.03;2.70;;;14.30;99.90;;;;;;484587;245;29298;-73
2023/09/01 00:02:13;;;;;;;3.70;2.30;;;14.30;99.90;;;;;;484471;244;28998;-73
2023/09/01 00:04:14;;;;;;;3.23;2.80;;;14.30;99.90;;;;;;484579;245;28830;-73
2023/09/01 00:06:15;;;;;;;4.50;3.40;;;14.30;99.90;;;;;;484589;245;28434;-75
2023/09/01 00:08:16;;;;;;;8.77;2.90;;;14.30;99.90;;;;;;484591;245;28904;-74
2023/09/01 00:10:18;;;;;;;2.37;2.20;;;14.30;99.90;;;;;;484580;245;28907;-74
2023/09/01 00:12:19;;;;;;;6.20;3.00;;;14.40;99.90;;;;;;484589;245;28325;-73
2023/09/01 00:14:20;;;;;;;4.20;2.80;;;14.40;99.90;;;;;;484571;245;28324;-73
2023/09/01 00:16:21;;;;;;;3.23;2.60;;;14.40;99.90;;;;;;484627;245;29208;-73
2023/09/01 00:18:23;;;;;;;2.93;2.70;;;14.40;99.90;;;;;;484601;245;28940;-73
2023/09/01 00:20:24;;;;;;;3.40;2.90;;;14.40;99.90;;;;;;484637;245;29026;-73
2023/09/01 00:22:25;;;;;;;5.60;3.07;;;14.40;99.90;;;;;;484609;245;28799;-76
2023/09/01 00:24:26;;;;;;;3.07;2.77;;;14.40;99.90;;;;;;484612;245;28333;-76
2023/09/01 00:26:28;;;;;;;3.00;2.73;;;14.40;99.90;;;;;;484618;245;28442;-75
2023/09/01 00:28:29;;;;;;;3.53;2.50;;;14.50;99.90;;;;;;484625;245;28752;-75
2023/09/01 00:30:30;;;;;;;7.63;2.67;;;14.50;99.90;;;;;;484612;245;28444;-75
2023/09/01 00:32:32;;;;;;;4.80;2.63;;;14.50;99.90;;;;;;484627;245;28843;-75
2023/09/01 00:34:33;;;;;;;3.23;2.53;;;14.50;99.90;;;;;;484622;245;28449;-75
2023/09/01 00:36:34;;;;;;;5.47;3.20;;;14.50;99.90;;;;;;484626;245;29283;-75
2023/09/01 00:38:35;;;;;;;7.23;3.57;;;14.50;99.90;;;;;;484621;245;29208;-75
2023/09/01 00:40:37;;;;;;;4.93;3.20;;;14.60;99.90;;;;;;484616;245;28767;-75
2023/09/01 00:42:38;;;;;;;5.57;3.13;;;14.60;99.90;;;;;;484617;245;28545;-75
2023/09/01 00:44:39;;;;;;;8.40;3.50;;;14.60;99.90;;;;;;484595;245;28445;-76
2023/09/01 00:46:43;;;;;;;3.20;2.90;;;14.60;99.90;;;;;;484633;245;28443;-76
2023/09/01 00:48:42;;;;;;;4.13;3.33;;;14.60;99.90;;;;;;484449;245;28532;-75
2023/09/01 00:50:43;;;;;;;6.07;3.70;;;14.60;99.90;;;;;;484620;245;28356;-75
2023/09/01 00:52:44;;;;;;;4.50;2.90;;;14.60;99.90;;;;;;484609;245;28820;-73
2023/09/01 00:54:46;;;;;;;3.23;2.50;;;14.60;99.90;;;;;;484611;245;28493;-76
2023/09/01 00:56:47;;;;;;;5.93;3.77;;;14.60;99.90;;;;;;484609;245;28755;-75
2023/09/01 00:58:48;;;;;;;6.17;3.20;;;14.60;99.90;;;;;;484623;245;28755;-72
2023/09/01 01:00:50;;;;;;;5.20;3.60;;;14.70;99.90;;;;;;484612;245;28745;-75
2023/09/01 01:02:51;;;;;;;5.70;3.77;;;14.70;99.90;;;;;;484583;245;28502;-75
2023/09/01 01:04:52;;;;;;;5.37;3.23;;;14.70;99.90;;;;;;484609;245;28748;-74
2023/09/01 01:06:54;;;;;;;6.20;3.40;;;14.70;99.90;;;;;;484603;245;28324;-74
2023/09/01 01:08:55;;;;;;;8.87;4.50;;;14.70;99.90;;;;;;484604;245;28824;-75
2023/09/01 01:10:57;;;;;;;6.17;3.60;;;14.70;99.90;;;;;;484612;245;28824;-75
2023/09/01 01:12:58;;;;;;;6.37;4.00;;;14.70;99.90;;;;;;484582;245;28747;-75
2023/09/01 01:14:59;;;;;;;4.20;3.30;;;14.80;99.90;;;;;;484611;245;28447;-75
2023/09/01 01:17:00;;;;;;;8.83;4.50;;;14.80;99.90;;;;;;484617;245;28528;-74
2023/09/01 01:19:01;;;;;;;6.10;4.37;;;14.80;99.90;;;;;;484607;245;28568;-75
2023/09/01 01:21:04;;;;;;;6.07;4.30;;;14.80;99.90;;;;;;484638;245;28406;-73
2023/09/01 01:23:04;;;;;;;4.80;4.30;;;14.80;99.90;;;;;;484540;245;28436;-75
2023/09/01 01:25:05;;;;;;;4.87;3.83;;;14.80;99.90;;;;;;484627;245;28751;-73
2023/09/01 01:27:06;;;;;;;3.83;3.10;;;14.80;99.90;;;;;;484637;245;28831;-72
2023/09/01 01:29:08;;;;;;;4.63;4.00;;;14.80;99.90;;;;;;484629;245;29016;-73
2023/09/01 01:31:09;;;;;;;6.83;3.10;;;14.80;99.90;;;;;;484626;245;29224;-73
2023/09/01 01:33:10;;;;;;;6.10;4.80;;;14.80;99.90;;;;;;484631;245;28329;-73
2023/09/01 01:35:12;;;;;;;5.30;3.80;;;14.80;99.90;;;;;;484625;245;28438;-73
2023/09/01 01:37:13;;;;;;;5.73;4.70;;;14.80;99.90;;;;;;484647;245;28819;-76
2023/09/01 01:39:14;;;;;;;4.80;4.10;;;14.80;99.90;;;;;;484610;245;28732;-73
2023/09/01 01:41:15;;;;;;;7.00;4.43;;;14.90;99.90;;;;;;484613;245;28449;-75
2023/09/01 01:43:17;;;;;;;8.37;4.30;;;14.90;99.90;;;;;;484601;245;28766;-75
2023/09/01 01:45:20;;;;;;;5.83;4.40;;;14.90;99.90;;;;;;484601;245;28758;-75
2023/09/01 01:47:19;;;;;;;5.47;4.63;;;14.90;99.90;;;;;;484494;245;28334;-75
2023/09/01 01:49:21;;;;;;;4.67;4.27;;;14.90;99.90;;;;;;484605;245;28751;-75
2023/09/01 01:51:22;;;;;;;5.10;3.73;;;14.90;99.90;;;;;;484597;245;28835;-75
2023/09/01 01:53:23;;;;;;;4.13;3.23;;;14.90;99.90;;;;;;484635;245;29626;-75
2023/09/01 01:55:24;;;;;;;4.67;3.80;;;14.90;99.90;;;;;;484630;245;29220;-75
2023/09/01 01:57:26;;;;;;;5.80;4.00;;;14.90;99.90;;;;;;484508;245;28452;-75
2023/09/01 01:59:27;;;;;;;6.83;4.10;;;14.90;99.90;;;;;;484627;245;28458;-73
2023/09/01 02:01:28;;;;;;;5.20;3.60;;;14.90;99.90;;;;;;484617;245;28833;-73
2023/09/01 02:03:30;;;;;;;4.87;3.80;;;14.90;99.90;;;;;;485425;244;29315;-72
2023/09/01 02:05:32;;;;;;;4.70;3.40;;;14.90;99.90;;;;;;484614;245;28758;-72
2023/09/01 02:07:32;;;;;;;4.80;4.40;;;15.00;99.90;;;;;;484549;245;28448;-75
2023/09/01 02:09:33;;;;;;;6.27;4.10;;;15.00;99.90;;;;;;484620;245;28840;-72
2023/09/01 02:11:35;;;;;;;8.67;4.50;;;15.00;99.90;;;;;;484626;245;28749;-75
2023/09/01 02:13:36;;;;;;;4.47;3.73;;;15.00;99.90;;;;;;484610;245;28761;-75
2023/09/01 02:15:37;;;;;;;8.57;4.30;;;15.00;99.90;;;;;;484595;245;28752;-75
2023/09/01 02:17:39;;;;;;;6.13;5.03;;;15.00;99.90;;;;;;484623;245;28832;-71
2023/09/01 02:19:40;;;;;;;8.73;4.90;;;15.00;99.90;;;;;;484620;245;28748;-73
2023/09/01 02:21:41;;;;;;;8.73;5.87;;;15.00;99.90;;;;;;484614;245;28784;-73
2023/09/01 02:23:43;;;;;;;8.27;5.57;;;15.10;99.90;;;;;;484625;245;28762;-73
2023/09/01 02:25:44;;;;;;;8.93;4.80;;;15.00;99.90;;;;;;484615;245;28836;-75
2023/09/01 02:27:45;;;;;;;5.63;5.00;;;15.10;99.90;;;;;;484615;245;28761;-72
2023/09/01 02:29:47;;;;;;;8.20;5.80;;;15.10;99.90;;;;;;484621;245;29195;-72
2023/09/01 02:31:48;;;;;;;5.70;5.20;;;15.10;99.90;;;;;;484616;245;28765;-73
2023/09/01 02:33:49;;;;;;;11.33;6.37;;;15.10;99.90;;;;;;484590;245;28810;-75
2023/09/01 02:35:50;;;;;;;9.37;6.03;;;15.10;99.90;;;;;;484589;245;29207;-76
2023/09/01 02:37:52;;;;;;;7.37;6.13;;;15.10;99.90;;;;;;484622;245;28761;-74
2023/09/01 02:39:53;;;;;;;9.07;5.87;;;15.10;99.90;;;;;;484628;245;28853;-75
2023/09/01 02:41:54;;;;;;;6.53;5.73;;;15.10;99.90;;;;;;484626;245;28753;-73
2023/09/01 02:43:56;;;;;;;7.20;5.70;;;15.20;99.90;;;;;;484629;245;28753;-73
2023/09/01 02:45:57;;;;;;;6.83;5.47;;;15.20;99.90;;;;;;484596;245;28773;-73
2023/09/01 02:47:58;;;;;;;8.60;6.77;;;15.20;99.90;;;;;;484592;245;28745;-76
2023/09/01 02:50:01;;;;;;;12.70;7.13;;;15.20;99.90;;;;;;484607;245;28838;-74
2023/09/01 02:52:02;;;;;;;11.47;6.50;;;15.20;99.90;;;;;;484501;245;29219;-75
2023/09/01 02:54:04;;;;;;;9.10;6.90;;;15.20;99.90;;;;;;484602;245;28850;-75
2023/09/01 02:56:05;;;;;;;10.67;6.83;;;15.20;99.90;;;;;;484540;245;29167;-75
2023/09/01 02:58:06;;;;;;;15.47;7.70;;;15.20;99.90;;;;;;484593;245;28769;-75
2023/09/01 03:00:28;;;;;;;9.10;7.00;;;15.20;99.90;;;;;;484573;245;29289;-76
2023/09/01 03:02:08;;;;;;;12.60;7.03;;;15.30;99.90;;;;;;483496;245;28754;-75
2023/09/01 03:04:10;;;;;;;7.43;5.90;;;15.30;99.90;;;;;;484621;245;28921;-75
2023/09/01 03:06:11;;;;;;;7.03;6.10;;;15.30;99.90;;;;;;484636;245;28753;-75
2023/09/01 03:08:12;;;;;;;8.30;6.50;;;15.20;99.90;;;;;;484608;245;28824;-75
2023/09/01 03:10:13;;;;;;;9.17;6.80;;;15.30;99.90;;;;;;484616;245;28767;-73
2023/09/01 03:12:16;;;;;;;11.97;6.53;;;15.30;99.90;;;;;;484585;245;28746;-75
2023/09/01 03:14:17;;;;;;;8.70;7.03;;;15.30;99.90;;;;;;484602;245;28771;-75
2023/09/01 03:16:18;;;;;;;11.27;6.40;;;15.30;99.90;;;;;;484613;245;28846;-72
2023/09/01 03:18:21;;;;;;;9.47;6.77;;;15.30;99.90;;;;;;484613;245;28763;-74
2023/09/01 03:20:22;;;;;;;9.17;6.90;;;15.30;99.90;;;;;;484590;245;28760;-75
2023/09/01 03:22:23;;;;;;;11.43;7.03;;;15.40;99.90;;;;;;484594;245;28826;-76
2023/09/01 03:24:25;;;;;;;8.30;5.97;;;15.40;99.90;;;;;;484594;245;28856;-75
2023/09/01 03:26:26;;;;;;;6.77;5.30;;;15.40;99.90;;;;;;484594;245;29231;-72
2023/09/01 03:28:27;;;;;;;5.83;5.03;;;15.40;99.90;;;;;;484624;245;29305;-73
2023/09/01 03:30:28;;;;;;;5.77;5.00;;;15.40;99.90;;;;;;484602;245;29308;-74
2023/09/01 03:32:30;;;;;;;7.93;5.37;;;15.40;99.90;;;;;;484625;245;28764;-73
2023/09/01 03:34:31;;;;;;;6.17;5.50;;;15.40;99.90;;;;;;484613;245;28817;-74
2023/09/01 03:36:32;;;;;;;5.80;5.20;;;15.40;99.90;;;;;;484598;245;28771;-74
2023/09/01 03:38:34;;;;;;;7.53;6.23;;;15.40;99.90;;;;;;484619;245;28770;-73
2023/09/01 03:40:35;;;;;;;7.20;5.80;;;15.50;99.90;;;;;;484608;245;28756;-73
2023/09/01 03:42:36;;;;;;;6.53;5.67;;;15.50;99.90;;;;;;484624;245;28761;-73
2023/09/01 03:44:37;;;;;;;6.87;5.37;;;15.50;99.90;;;;;;484616;245;29277;-72
2023/09/01 03:46:39;;;;;;;6.80;5.57;;;15.50;99.90;;;;;;484577;245;29217;-76
2023/09/01 03:48:40;;;;;;;7.87;5.57;;;15.50;99.90;;;;;;484597;245;29209;-75
2023/09/01 03:50:41;;;;;;;5.27;4.77;;;15.50;99.90;;;;;;484594;245;28732;-76
2023/09/01 03:52:42;;;;;;;6.20;5.07;;;15.50;99.90;;;;;;484612;245;28843;-75
2023/09/01 03:54:44;;;;;;;6.33;5.30;;;15.50;99.90;;;;;;484615;245;28736;-73
2023/09/01 03:56:45;;;;;;;6.10;5.13;;;15.50;99.90;;;;;;484639;245;28884;-73
2023/09/01 03:58:46;;;;;;;10.70;5.70;;;15.50;99.90;;;;;;484623;245;28748;-75
2023/09/01 04:00:47;;;;;;;11.60;6.10;;;15.50;99.90;;;;;;484606;245;28767;-75
2023/09/01 04:02:51;;;;;;;9.70;5.43;;;15.50;99.90;;;;;;484505;245;29302;-75
2023/09/01 04:04:52;;;;;;;8.50;5.13;;;15.50;99.90;;;;;;484634;245;28836;-75
2023/09/01 04:06:53;;;;;;;7.37;5.00;;;15.50;99.90;;;;;;484621;245;28839;-74
2023/09/01 04:08:54;;;;;;;10.00;6.63;;;15.60;99.90;;;;;;484641;245;29225;-75
2023/09/01 04:10:56;;;;;;;8.70;6.40;;;15.60;99.90;;;;;;484644;245;29285;-75
2023/09/01 04:12:58;;;;;;;4.10;3.80;;;15.60;99.90;;;;;;484631;245;29213;-75
2023/09/01 04:14:58;;;;;;;9.67;4.50;;;15.60;99.90;;;;;;484624;245;28756;-73
2023/09/01 04:16:59;;;;;;;6.63;5.00;;;15.60;99.90;;;;;;484655;245;28863;-73
2023/09/01 04:19:01;;;;;;;10.00;5.43;;;15.60;99.90;;;;;;484612;245;28745;-73
2023/09/01 04:21:02;;;;;;;10.80;6.07;;;15.60;99.90;;;;;;484623;245;29219;-74
2023/09/01 04:23:03;;;;;;;7.03;4.87;;;15.60;99.90;;;;;;484618;245;29303;-75
2023/09/01 04:25:04;;;;;;;4.87;4.33;;;15.50;99.90;;;;;;484634;245;29283;-74
2023/09/01 04:27:07;;;;;;;5.63;4.10;;;15.60;99.90;;;;;;484626;245;28831;-72
2023/09/01 04:29:08;;;;;;;6.17;3.87;;;15.60;99.90;;;;;;484584;245;28743;-73
2023/09/01 04:31:09;;;;;;;4.33;3.90;;;15.60;99.90;;;;;;484614;245;28838;-75
2023/09/01 04:33:10;;;;;;;4.83;4.23;;;15.60;99.90;;;;;;484642;245;29254;-72
2023/09/01 04:35:12;;;;;;;6.10;4.90;;;15.60;99.90;;;;;;484642;245;29215;-73
2023/09/01 04:37:13;;;;;;;5.80;5.20;;;15.60;99.90;;;;;;484627;245;29299;-72
2023/09/01 04:39:15;;;;;;;13.13;5.87;;;15.60;99.90;;;;;;484629;245;28747;-73
2023/09/01 04:41:15;;;;;;;6.80;5.00;;;15.60;99.90;;;;;;484623;245;28827;-75
2023/09/01 04:43:17;;;;;;;5.40;4.90;;;15.60;99.90;;;;;;484614;245;28821;-75
2023/09/01 04:45:18;;;;;;;9.27;4.80;;;15.60;99.90;;;;;;484619;245;28747;-75
2023/09/01 04:47:19;;;;;;;11.33;6.00;;;15.60;99.90;;;;;;484612;245;28751;-74
2023/09/01 04:49:20;;;;;;;9.60;6.17;;;15.60;99.90;;;;;;484629;245;29192;-75
2023/09/01 04:51:22;;;;;;;12.90;5.03;;;15.50;99.90;;;;;;484630;245;29305;-76
2023/09/01 04:53:23;;;;;;;9.63;5.77;;;15.50;99.90;;;;;;484579;245;29219;-75
2023/09/01 04:55:25;;;;;;;7.40;6.07;;;15.50;99.90;;;;;;484629;245;28834;-73
2023/09/01 04:57:25;;;;;;;6.30;5.20;;;15.60;99.90;;;;;;484618;245;28825;-74
2023/09/01 04:59:27;;;;;;;7.10;5.90;;;15.60;99.90;;;;;;484602;245;28735;-76
2023/09/01 05:01:28;;;;;;;7.20;5.67;;;15.60;99.90;;;;;;484614;245;28751;-76
2023/09/01 05:03:29;;;;;;;7.73;5.97;;;15.60;99.90;;;;;;484617;245;28845;-74
2023/09/01 05:05:31;;;;;;;6.97;5.90;;;15.60;99.90;;;;;;484611;245;29289;-75
2023/09/01 05:07:32;;;;;;;6.53;4.87;;;15.50;99.90;;;;;;484610;245;29225;-75
2023/09/01 05:09:33;;;;;;;9.60;5.90;;;15.60;99.90;;;;;;484618;245;29311;-76
2023/09/01 05:11:34;;;;;;;9.80;6.40;;;15.60;99.90;;;;;;484615;245;28752;-74
2023/09/01 05:13:36;;;;;;;11.03;5.90;;;15.60;99.90;;;;;;484614;245;28834;-75
2023/09/01 05:15:37;;;;;;;9.33;6.37;;;15.60;99.90;;;;;;484616;245;28840;-75
2023/09/01 05:17:38;;;;;;;7.07;5.40;;;15.60;99.90;;;;;;484605;245;28854;-74
2023/09/01 05:19:39;;;;;;;5.80;5.30;;;15.50;99.90;;;;;;484615;245;28754;-74
2023/09/01 05:21:42;;;;;;;7.20;4.13;;;15.60;99.90;;;;;;484600;245;29217;-76
2023/09/01 05:23:43;;;;;;;5.10;4.23;;;15.60;99.90;;;;;;484615;245;28738;-73
2023/09/01 05:25:44;;;;;;;6.43;5.63;;;15.60;99.90;;;;;;484629;245;28903;-73
2023/09/01 05:27:45;;;;;;;5.23;3.97;;;15.60;99.90;;;;;;484626;245;28829;-73
2023/09/01 05:29:47;;;;;;;5.63;4.67;;;15.60;99.90;;;;;;484677;245;28750;-74
2023/09/01 05:31:48;;;;;;;5.47;3.80;;;15.70;99.90;;;;;;484629;245;29195;-73
2023/09/01 05:33:49;;;;;;;5.23;3.90;;;15.70;99.90;;;;;;484628;245;29320;-75
2023/09/01 05:35:51;;;;;;;5.47;3.13;;;15.70;99.90;;;;;;484634;245;29186;-75
2023/09/01 05:37:53;;;;;;;3.23;3.03;;;15.70;99.90;;;;;;484631;245;28748;-72
2023/09/01 05:39:55;;;;;;;4.73;3.33;;;15.70;99.90;;;;;;484492;245;28747;-72
2023/09/01 05:41:55;;;;;;;3.30;3.00;;;15.70;99.90;;;;;;484504;245;29311;-75
2023/09/01 05:43:56;;;;;;;5.63;2.80;;;15.70;99.90;;;;;;484591;245;29291;-75
2023/09/01 05:45:58;;;;;;;3.63;2.80;;;15.70;99.90;;;;;;484612;245;29180;-75
2023/09/01 05:47:59;;;;;;;5.93;3.47;;;15.70;99.90;;;;;;484575;245;28724;-75
2023/09/01 05:50:00;;;;;;;2.90;2.70;;;15.70;99.90;;;;;;484632;245;28802;-75
2023/09/01 05:52:01;;;;;;;4.10;3.37;;;15.70;99.90;;;;;;484622;245;28731;-76
2023/09/01 05:54:03;;;;;;;5.90;4.23;;;15.70;99.90;;;;;;484617;245;28740;-73
2023/09/01 05:56:04;;;;;;;4.30;3.90;;;15.70;99.90;;;;;;484609;245;28744;-76
2023/09/01 05:58:05;;;;;;;5.50;4.33;;;15.70;99.90;;;;;;484622;245;29260;-74
2023/09/01 06:00:07;;;;;;;5.10;4.10;;;15.70;99.90;;;;;;484620;245;29217;-73
2023/09/01 06:02:09;;;;;;;5.07;4.57;;;15.70;99.90;;;;;;484608;245;28760;-75
2023/09/01 06:04:10;;;;;;;5.13;4.33;;;15.70;99.90;;;;;;484603;245;29207;-75
2023/09/01 06:06:11;;;;;;;7.33;4.30;;;15.70;99.90;;;;;;484637;245;29208;-74
2023/09/01 06:08:12;;;;;;;6.17;4.60;;;15.80;99.90;;;;;;484609;245;29195;-73
2023/09/01 06:10:14;;;;;;;10.57;4.50;;;15.90;99.90;;;;;;484618;245;28744;-74
2023/09/01 06:12:15;;;;;;;7.20;4.90;;;15.90;99.90;;;;;;484612;245;28751;-74
2023/09/01 06:14:16;;;;;;;6.70;4.57;;;15.90;99.90;;;;;;484618;245;28819;-75
2023/09/01 06:16:17;;;;;;;5.70;4.63;;;16.00;99.90;;;;;;484621;245;28909;-75
2023/09/01 06:18:19;;;;;;;5.60;4.40;;;16.00;99.90;;;;;;484622;245;29200;-74
2023/09/01 06:20:20;;;;;;;9.60;4.77;;;16.00;99.90;;;;;;484611;245;29657;-75
2023/09/01 06:22:21;;;;;;;4.33;3.93;;;16.00;99.90;;;;;;484621;245;29268;-73
2023/09/01 06:24:22;;;;;;;10.87;4.77;;;16.00;99.90;;;;;;484628;245;28756;-73
2023/09/01 06:26:24;;;;;;;5.77;4.30;;;16.00;99.90;;;;;;484591;245;28808;-75
2023/09/01 06:28:25;;;;;;;4.13;3.73;;;16.00;99.90;;;;;;484628;245;28831;-73
2023/09/01 06:30:26;;;;;;;5.60;4.30;;;16.00;99.90;;;;;;484615;245;28824;-72
2023/09/01 06:32:27;;;;;;;6.50;4.80;;;16.00;99.90;;;;;;484610;245;29306;-75
2023/09/01 06:34:29;;;;;;;7.07;4.37;;;16.00;99.90;;;;;;484627;245;29285;-71
2023/09/01 06:36:30;;;;;;;6.87;4.20;;;16.10;99.90;;;;;;484617;245;28756;-73
2023/09/01 06:38:31;;;;;;;5.13;4.43;;;16.10;99.90;;;;;;484587;245;28759;-76
2023/09/01 06:40:32;;;;;;;5.13;4.00;;;16.20;99.90;;;;;;484594;245;29227;-75
2023/09/01 06:42:35;;;;;;;6.07;3.60;;;16.20;99.90;;;;;;484604;245;29200;-75
2023/09/01 06:44:36;;;;;;;4.07;3.60;;;16.20;99.90;;;;;;484600;245;28755;-73
2023/09/01 06:46:37;;;;;;;4.77;4.20;;;16.20;99.90;;;;;;484596;245;28837;-76
2023/09/01 06:48:38;;;;;;;5.47;4.17;;;16.30;99.90;;;;;;484592;245;29257;-75
2023/09/01 06:50:40;;;;;;;5.03;4.53;;;16.30;99.90;;;;;;484590;245;29195;-75
2023/09/01 06:52:41;;;;;;;5.63;4.43;;;16.30;99.90;;;;;;484486;245;29226;-76
2023/09/01 06:54:42;;;;;;;7.73;4.30;;;16.40;99.90;;;;;;484600;245;28735;-75
2023/09/01 06:56:44;;;;;;;6.40;5.10;;;16.50;99.90;;;;;;484584;245;28841;-75
2023/09/01 06:58:45;;;;;;;5.30;4.03;;;16.50;99.90;;;;;;484589;245;28736;-75
2023/09/01 07:00:46;;;;;;;6.53;4.37;;;16.40;99.90;;;;;;484568;245;29338;-75
2023/09/01 07:02:47;;;;;;;5.13;4.30;;;16.40;99.90;;;;;;484595;245;29201;-75
2023/09/01 07:04:49;;;;;;;4.40;3.93;;;16.40;99.90;;;;;;484595;245;28768;-75
2023/09/01 07:06:50;;;;;;;6.60;4.30;;;16.40;99.90;;;;;;484576;245;28859;-75
2023/09/01 07:08:51;;;;;;;4.57;4.17;;;16.40;99.90;;;;;;484586;245;29526;-75
2023/09/01 07:10:52;;;;;;;7.83;4.30;;;16.60;99.90;;;;;;484596;245;29284;-75
2023/09/01 07:12:54;;;;;;;5.23;4.50;;;16.80;99.90;;;;;;484594;245;29332;-75
2023/09/01 07:14:55;;;;;;;4.83;4.30;;;16.80;99.90;;;;;;484595;245;28839;-75
2023/09/01 07:16:56;;;;;;;3.80;3.50;;;16.90;99.90;;;;;;484596;245;28755;-75
2023/09/01 07:18:57;;;;;;;7.90;4.00;;;16.90;99.90;;;;;;484585;245;29519;-76
2023/09/01 07:20:59;;;;;;;7.13;4.20;;;16.90;99.90;;;;;;484613;245;29246;-75
2023/09/01 07:23:00;;;;;;;5.00;3.73;;;16.90;99.90;;;;;;484599;245;28757;-75
2023/09/01 07:25:03;;;;;;;5.07;3.93;;;16.90;99.90;;;;;;484591;245;28744;-75
2023/09/01 07:27:03;;;;;;;7.70;3.90;;;16.80;99.90;;;;;;484484;245;29236;-75
2023/09/01 07:29:04;;;;;;;6.03;4.30;;;16.90;99.90;;;;;;484579;245;29213;-76
2023/09/01 07:31:05;;;;;;;5.07;4.07;;;16.80;99.90;;;;;;484594;245;29214;-75
2023/09/01 07:33:06;;;;;;;4.30;3.90;;;16.80;99.90;;;;;;484591;245;28764;-74
2023/09/01 07:35:08;;;;;;;5.83;4.00;;;16.80;99.90;;;;;;484594;245;28750;-75
2023/09/01 07:37:09;;;;;;;4.30;3.90;;;16.80;99.90;;;;;;484574;245;29233;-75
2023/09/01 07:39:10;;;;;;;5.00;3.70;;;16.80;99.90;;;;;;484586;245;29248;-75
2023/09/01 07:41:11;;;;;;;5.93;3.90;;;16.80;99.90;;;;;;484601;245;29215;-74
2023/09/01 07:43:15;;;;;;;4.40;4.00;;;16.90;99.90;;;;;;484596;245;28854;-75
2023/09/01 07:45:14;;;;;;;6.57;4.20;;;16.90;99.90;;;;;;484411;245;28752;-75
2023/09/01 07:47:15;;;;;;;5.53;3.83;;;17.00;99.90;;;;;;484578;245;29219;-75
2023/09/01 07:49:16;;;;;;;6.50;5.00;;;17.10;99.90;;;;;;484586;245;29212;-74
2023/09/01 07:51:18;;;;;;;6.37;3.90;;;17.10;99.90;;;;;;484601;245;28821;-75
2023/09/01 07:53:20;;;;;;;4.93;3.73;;;17.10;99.90;;;;;;484600;245;28827;-75
2023/09/01 07:55:21;;;;;;;8.03;3.70;;;17.10;99.90;;;;;;484596;245;28759;-75
2023/09/01 07:57:23;;;;;;;5.50;3.77;;;17.10;99.90;;;;;;484587;245;28755;-75
2023/09/01 07:59:24;;;;;;;4.87;3.60;;;17.00;99.90;;;;;;484615;245;28751;-74
2023/09/01 08:01:25;;;;;;;4.80;3.43;;;17.00;99.90;;;;;;484598;245;28847;-73
2023/09/01 08:03:26;;;;;;;5.47;3.57;;;17.10;99.90;;;;;;484590;245;29223;-75
2023/09/01 08:05:28;;;;;;;6.87;3.20;;;17.10;99.90;;;;;;484602;245;28771;-74
2023/09/01 08:07:29;;;;;;;9.33;2.93;;;17.20;99.90;;;;;;484589;245;29151;-73
2023/09/01 08:09:30;;;;;;;3.97;3.00;;;17.30;99.90;;;;;;484592;245;29205;-75
2023/09/01 08:11:31;;;;;;;2.70;2.50;;;17.40;99.90;;;;;;484593;245;28827;-72
2023/09/01 08:13:33;;;;;;;3.20;2.90;;;17.50;99.90;;;;;;484605;245;28739;-74
2023/09/01 08:15:34;;;;;;;3.37;2.70;;;17.60;99.90;;;;;;484592;245;29222;-73
2023/09/01 08:17:35;;;;;;;2.80;2.60;;;17.70;99.90;;;;;;484593;245;29208;-76
2023/09/01 08:19:40;;;;;;;9.03;3.37;;;17.70;99.90;;;;;;484595;245;29293;-76
2023/09/01 08:21:38;;;;;;;3.37;2.80;;;17.80;99.90;;;;;;484379;245;28856;-75
2023/09/01 08:23:40;;;;;;;3.20;2.90;;;17.90;99.90;;;;;;484594;245;28823;-75
2023/09/01 08:25:41;;;;;;;5.30;2.77;;;17.90;99.90;;;;;;484566;245;28885;-74
2023/09/01 08:27:42;;;;;;;2.80;2.53;;;17.70;99.90;;;;;;484533;245;29279;-74
2023/09/01 08:29:43;;;;;;;3.03;2.23;;;17.70;99.90;;;;;;484598;245;28759;-73
2023/09/01 08:31:45;;;;;;;2.63;2.13;;;17.80;99.90;;;;;;484576;245;28747;-75
2023/09/01 08:33:46;;;;;;;3.27;2.70;;;17.80;99.90;;;;;;484587;245;28857;-74
2023/09/01 08:35:48;;;;;;;3.37;2.30;;;17.90;99.90;;;;;;484582;245;29207;-78
2023/09/01 08:37:49;;;;;;;4.17;2.70;;;17.80;99.90;;;;;;484596;245;28868;-74
2023/09/01 08:39:50;;;;;;;2.60;2.40;;;17.80;99.90;;;;;;484609;245;28751;-74
2023/09/01 08:41:52;;;;;;;4.20;2.47;;;17.80;99.90;;;;;;484619;245;28746;-74
2023/09/01 08:43:53;;;;;;;2.37;2.17;;;17.80;99.90;;;;;;484615;245;28768;-74
2023/09/01 08:45:54;;;;;;;2.40;2.20;;;17.80;99.90;;;;;;484587;245;28741;-74
2023/09/01 08:47:56;;;;;;;2.43;2.23;;;17.70;99.90;;;;;;484603;245;28740;-74
2023/09/01 08:49:58;;;;;;;5.57;2.40;;;17.80;99.90;;;;;;484614;245;29322;-74
2023/09/01 08:51:59;;;;;;;5.83;2.00;;;17.90;99.90;;;;;;484607;245;29319;-74
2023/09/01 08:54:00;;;;;;;2.83;2.30;;;17.90;99.90;;;;;;484617;245;29240;-74
2023/09/01 08:56:01;;;;;;;2.80;2.27;;;17.90;99.90;;;;;;484619;245;28765;-74
2023/09/01 08:58:03;;;;;;;2.43;2.23;;;17.90;99.90;;;;;;484606;245;28821;-74
2023/09/01 09:00:04;;;;;;;2.50;2.30;;;17.90;99.90;;;;;;484619;245;28775;-80
2023/09/01 09:02:08;;;;;;;3.10;1.90;;;17.80;99.90;;;;;;484610;245;28758;-74
2023/09/01 09:04:10;;;;;;;2.30;2.07;;;17.80;99.90;;;;;;484618;245;28921;-73
2023/09/01 09:06:11;;;;;;;2.47;2.07;;;17.80;99.90;;;;;;484623;245;28746;-74
2023/09/01 09:08:12;;;;;;;3.33;2.20;;;17.80;99.90;;;;;;484608;245;28749;-74
2023/09/01 09:10:14;;;;;;;2.53;2.07;;;17.80;99.90;;;;;;484600;245;28826;-73
2023/09/01 09:12:16;;;;;;;2.33;2.00;;;17.70;99.90;;;;;;484615;245;28833;-74
2023/09/01 09:14:16;;;;;;;4.10;2.17;;;17.70;99.90;;;;;;484592;245;28750;-74
2023/09/01 09:16:17;;;;;;;2.57;2.33;;;17.70;99.90;;;;;;484621;245;28834;-75
2023/09/01 09:18:19;;;;;;;2.20;1.97;;;17.70;99.90;;;;;;484610;245;29282;-75
2023/09/01 09:20:22;;;;;;;2.50;2.30;;;17.60;99.90;;;;;;484622;245;28760;-73
2023/09/01 09:22:21;;;;;;;2.53;2.20;;;17.70;99.90;;;;;;484468;245;28754;-75
2023/09/01 09:24:23;;;;;;;2.37;2.20;;;17.70;99.90;;;;;;484595;245;28859;-74
2023/09/01 09:26:24;;;;;;;2.40;2.20;;;17.80;99.90;;;;;;484615;245;28758;-74
2023/09/01 09:28:25;;;;;;;2.97;2.20;;;17.70;99.90;;;;;;484595;245;29205;-74
2023/09/01 09:30:26;;;;;;;1.87;1.77;;;17.90;99.90;;;;;;484604;245;28814;-74
2023/09/01 09:32:28;;;;;;;1.70;1.60;;;17.90;99.90;;;;;;484610;245;28829;-75
2023/09/01 09:34:29;;;;;;;2.00;1.80;;;17.90;99.90;;;;;;484600;245;28793;-77
2023/09/01 09:36:30;;;;;;;2.17;1.97;;;17.90;99.90;;;;;;484599;245;28766;-75
2023/09/01 09:38:32;;;;;;;1.80;1.60;;;17.90;99.90;;;;;;484601;245;28760;-77
2023/09/01 09:40:33;;;;;;;1.60;1.50;;;17.90;99.90;;;;;;484610;245;28754;-74
2023/09/01 09:42:34;;;;;;;1.40;1.30;;;17.90;99.90;;;;;;484605;245;29211;-74
2023/09/01 09:44:35;;;;;;;1.80;1.70;;;17.90;99.90;;;;;;484623;245;29303;-74
2023/09/01 09:46:37;;;;;;;3.33;1.30;;;17.70;99.90;;;;;;484618;245;29197;-74
2023/09/01 09:48:38;;;;;;;1.50;1.50;;;17.60;99.90;;;;;;484612;245;28724;-75
2023/09/01 09:50:39;;;;;;;2.17;1.40;;;17.60;99.90;;;;;;484599;245;28826;-74
2023/09/01 09:52:41;;;;;;;3.37;1.90;;;17.50;99.90;;;;;;484607;245;28799;-75
2023/09/01 09:54:42;;;;;;;1.83;1.60;;;17.60;99.90;;;;;;484614;245;28819;-75
2023/09/01 09:56:45;;;;;;;2.57;2.23;;;17.90;99.90;;;;;;484596;245;28816;-74
2023/09/01 09:58:47;;;;;;;2.03;1.63;;;18.10;99.90;;;;;;484601;245;28761;-75
2023/09/01 10:00:48;;;;;;;1.90;1.73;;;18.30;99.90;;;;;;484575;245;28809;-75
2023/09/01 10:02:49;;;;;;;2.30;1.60;;;18.50;99.90;;;;;;484601;245;29190;-75
2023/09/01 10:04:50;;;;;;;1.70;1.57;;;18.50;99.90;;;;;;484598;245;29287;-74
2023/09/01 10:06:51;;;;;;;1.83;1.73;;;18.40;99.90;;;;;;484615;245;28725;-75
2023/09/01 10:08:53;;;;;;;2.17;1.80;;;18.40;99.90;;;;;;484596;245;28725;-74
2023/09/01 10:10:54;;;;;;;2.40;2.17;;;18.50;99.90;;;;;;484612;245;28766;-79
2023/09/01 10:12:55;;;;;;;2.03;1.83;;;18.70;99.90;;;;;;484607;245;28751;-76
2023/09/01 10:14:57;;;;;;;1.80;1.70;;;18.90;99.90;;;;;;484614;245;28750;-74
2023/09/01 10:16:58;;;;;;;2.27;1.83;;;19.10;99.90;;;;;;484609;245;28745;-75
2023/09/01 10:18:59;;;;;;;2.30;1.70;;;19.30;99.90;;;;;;484609;245;28740;-76
2023/09/01 10:21:01;;;;;;;1.90;1.70;;;19.50;99.90;;;;;;484613;245;29230;-76
2023/09/01 10:23:02;;;;;;;2.07;1.90;;;19.70;99.90;;;;;;484593;245;28833;-75
2023/09/01 10:25:04;;;;;;;1.70;1.60;;;19.70;99.90;;;;;;484590;245;28825;-75
2023/09/01 10:27:04;;;;;;;1.67;1.57;;;19.80;99.90;;;;;;484563;245;28823;-75
2023/09/01 10:29:06;;;;;;;4.13;2.30;;;19.90;99.90;;;;;;484588;245;28737;-76